createdAt,value
2023-06-10T00:03:48.530Z,17.72
2023-06-10T00:08:52.428Z,17.63
2023-06-10T00:13:55.376Z,17.55
2023-06-10T00:19:02.311Z,17.45
2023-06-10T00:24:07.601Z,17.35
2023-06-10T00:29:10.593Z,17.24
2023-06-10T00:34:13.649Z,17.16
2023-06-10T00:39:17.780Z,17.06
2023-06-10T00:44:20.961Z,16.94
2023-06-10T00:49:25.087Z,16.86
2023-06-10T00:54:28.442Z,16.76
2023-06-10T00:59:32.326Z,16.68
2023-06-10T01:04:38.722Z,16.58
2023-06-10T01:10:08.358Z,16.51
2023-06-10T01:15:27.499Z,16.43
2023-06-10T01:20:33.480Z,16.35
2023-06-10T01:25:59.253Z,16.27
2023-06-10T01:31:35.213Z,16.20
2023-06-10T01:36:43.692Z,16.13
2023-06-10T01:41:48.901Z,16.06
2023-06-10T01:46:53.863Z,16.03
2023-06-10T01:51:56.724Z,15.99
2023-06-10T01:56:59.476Z,15.95
2023-06-10T02:02:03.458Z,15.90
2023-06-10T02:07:09.642Z,15.82
2023-06-10T02:12:12.790Z,15.75
2023-06-10T02:17:15.826Z,15.71
2023-06-10T02:22:20.508Z,15.67
2023-06-10T02:27:25.739Z,15.65
2023-06-10T02:32:29.413Z,15.69
2023-06-10T02:37:32.290Z,15.68
2023-06-10T02:42:36.264Z,15.81
2023-06-10T02:47:44.093Z,16.24
2023-06-10T02:52:49.022Z,16.82
2023-06-10T02:57:52.101Z,17.12
2023-06-10T03:02:58.707Z,17.11
2023-06-10T03:08:01.823Z,17.14
2023-06-10T03:13:06.964Z,17.52
2023-06-10T03:18:09.673Z,18.21
2023-06-10T03:23:12.732Z,19.02
2023-06-10T03:28:15.915Z,19.28
2023-06-10T03:33:23.239Z,18.97
2023-06-10T03:38:25.989Z,19.02
2023-06-10T03:43:28.825Z,19.43
2023-06-10T03:48:32.182Z,20.33
2023-06-10T03:53:38.160Z,21.04
2023-06-10T03:58:45.930Z,21.47
2023-06-10T04:03:52.285Z,21.92
2023-06-10T04:08:55.246Z,22.31
2023-06-10T04:13:57.975Z,23.04
2023-06-10T04:19:01.859Z,23.55
2023-06-10T04:24:05.418Z,24.08
2023-06-10T04:29:18.085Z,24.81
2023-06-10T04:34:20.753Z,25.30
2023-06-10T04:39:23.698Z,25.90
2023-06-10T04:44:26.435Z,26.23
2023-06-10T04:49:31.126Z,26.38
2023-06-10T04:54:33.906Z,26.58
2023-06-10T04:59:38.665Z,26.75
2023-06-10T05:04:44.050Z,27.38
2023-06-10T05:09:50.717Z,27.77
2023-06-10T05:14:53.479Z,28.02
2023-06-10T05:19:57.237Z,28.22
2023-06-10T05:24:59.806Z,28.46
2023-06-10T05:30:05.679Z,28.55
2023-06-10T05:35:08.685Z,28.57
2023-06-10T05:40:12.705Z,28.65
2023-06-10T05:45:15.600Z,29.17
2023-06-10T05:50:18.569Z,29.33
2023-06-10T05:55:22.575Z,29.19
2023-06-10T06:00:25.379Z,29.22
2023-06-10T06:05:36.007Z,29.05
2023-06-10T06:10:39.129Z,29.55
2023-06-10T06:15:41.819Z,29.80
2023-06-10T06:20:44.719Z,29.74
2023-06-10T06:25:47.404Z,29.63
2023-06-10T06:30:50.087Z,29.51
2023-06-10T06:35:54.886Z,29.58
2023-06-10T06:40:57.892Z,29.55
2023-06-10T06:46:03.445Z,29.28
2023-06-10T06:51:06.369Z,29.47
2023-06-10T06:56:09.177Z,29.37
2023-06-10T07:01:11.938Z,29.15
2023-06-10T07:06:15.964Z,29.49
2023-06-10T07:11:21.254Z,29.90
2023-06-10T07:16:29.128Z,29.76
2023-06-10T07:21:33.290Z,29.80
2023-06-10T07:26:37.214Z,29.81
2023-06-10T07:31:41.686Z,29.95
2023-06-10T07:36:44.415Z,29.90
2023-06-10T07:41:47.105Z,30.45
2023-06-10T07:46:50.469Z,30.73
2023-06-10T07:51:56.127Z,30.62
2023-06-10T07:56:58.780Z,30.18
2023-06-10T08:02:01.527Z,29.71
2023-06-10T08:07:04.757Z,29.56
2023-06-10T08:12:08.808Z,29.60
2023-06-10T08:17:11.969Z,29.35
2023-06-10T08:22:15.924Z,28.50
2023-06-10T08:27:19.159Z,28.00
2023-06-10T08:32:21.930Z,27.94
2023-06-10T08:37:25.685Z,27.80
2023-06-10T08:42:46.809Z,27.66
2023-06-10T08:47:54.480Z,27.53
2023-06-10T08:53:00.166Z,27.59
2023-06-10T08:58:04.982Z,28.03
2023-06-10T09:03:10.318Z,28.11
2023-06-10T09:08:16.421Z,27.98
2023-06-10T09:13:20.104Z,27.61
2023-06-10T09:18:24.144Z,27.55
2023-06-10T09:23:27.353Z,27.58
2023-06-10T09:28:30.518Z,27.77
2023-06-10T09:33:35.574Z,28.03
2023-06-10T09:38:39.082Z,28.33
2023-06-10T09:43:47.540Z,27.81
2023-06-10T09:48:53.397Z,27.56
2023-06-10T09:54:02.169Z,27.46
2023-06-10T09:59:07.358Z,27.21
2023-06-10T10:04:09.986Z,27.16
2023-06-10T10:09:18.952Z,27.11
2023-06-10T10:14:23.712Z,27.02
2023-06-10T10:19:48.327Z,27.24
2023-06-10T10:24:56.489Z,26.79
2023-06-10T10:30:13.714Z,25.86
2023-06-10T10:35:24.719Z,25.01
2023-06-10T10:40:32.888Z,24.45
2023-06-10T10:45:37.407Z,24.10
2023-06-10T10:50:41.791Z,23.85
2023-06-10T10:56:08.043Z,23.53
2023-06-10T11:01:18.405Z,23.38
2023-06-10T11:06:23.183Z,23.44
2023-06-10T11:11:29.205Z,23.29
2023-06-10T11:16:44.339Z,23.32
2023-06-10T11:22:18.903Z,23.46
2023-06-10T11:27:28.491Z,23.59
2023-06-10T11:32:36.432Z,23.58
2023-06-10T11:37:43.386Z,23.51
2023-06-10T11:42:46.982Z,23.42
2023-06-10T11:48:00.727Z,23.57
2023-06-10T11:53:12.362Z,23.54
2023-06-10T11:58:26.266Z,23.54
2023-06-10T12:03:40.952Z,23.58
2023-06-10T12:08:45.162Z,23.47
2023-06-10T12:13:51.686Z,23.38
2023-06-10T12:19:04.238Z,23.40
2023-06-10T12:24:12.649Z,23.47
2023-06-10T12:29:26.050Z,23.38
2023-06-10T12:34:31.474Z,23.27
2023-06-10T12:39:35.406Z,23.47
2023-06-10T12:44:42.447Z,23.66
2023-06-10T12:49:48.388Z,23.70
2023-06-10T12:54:51.222Z,23.78
2023-06-10T12:59:55.714Z,23.98
2023-06-10T13:04:58.507Z,23.88
2023-06-10T13:10:04.050Z,23.64
2023-06-10T13:15:11.169Z,23.48
2023-06-10T13:20:14.207Z,23.57
2023-06-10T13:25:18.726Z,23.58
2023-06-10T13:30:21.774Z,23.53
2023-06-10T13:35:24.516Z,23.51
2023-06-10T13:40:28.136Z,23.45
2023-06-10T13:45:31.470Z,23.34
2023-06-10T13:50:34.301Z,23.29
2023-06-10T13:55:39.161Z,23.34
2023-06-10T14:00:42.181Z,23.36
2023-06-10T14:05:44.883Z,23.33
2023-06-10T14:10:52.451Z,23.29
2023-06-10T14:15:55.631Z,23.34
2023-06-10T14:21:00.577Z,23.40
2023-06-10T14:26:09.431Z,23.29
2023-06-10T14:31:12.127Z,23.18
2023-06-10T14:36:17.347Z,23.20
2023-06-10T14:41:20.021Z,23.23
2023-06-10T14:46:22.992Z,23.28
2023-06-10T14:51:27.805Z,23.40
2023-06-10T14:56:35.083Z,23.46
2023-06-10T15:01:40.297Z,23.38
2023-06-10T15:06:44.497Z,23.34
2023-06-10T15:11:48.648Z,23.33
2023-06-10T15:16:51.809Z,23.22
2023-06-10T15:21:55.050Z,23.13
2023-06-10T15:26:59.107Z,23.03
2023-06-10T15:32:02.072Z,22.94
2023-06-10T15:37:05.366Z,22.87
2023-06-10T15:42:08.279Z,22.87
2023-06-10T15:47:12.161Z,22.76
2023-06-10T15:52:15.857Z,22.65
2023-06-10T15:57:18.703Z,22.60
2023-06-10T16:02:21.677Z,22.61
2023-06-10T16:07:27.229Z,22.64
2023-06-10T16:12:29.976Z,22.66
2023-06-10T16:17:33.482Z,22.64
2023-06-10T16:22:36.752Z,22.59
2023-06-10T16:27:39.370Z,22.54
2023-06-10T16:32:44.269Z,22.44
2023-06-10T16:37:47.170Z,22.40
2023-06-10T16:42:50.968Z,22.36
2023-06-10T16:47:55.187Z,22.26
2023-06-10T16:53:02.927Z,22.17
2023-06-10T16:58:08.591Z,22.11
2023-06-10T17:03:15.104Z,22.09
2023-06-10T17:08:18.035Z,22.06
2023-06-10T17:13:21.268Z,21.94
2023-06-10T17:18:24.213Z,21.84
2023-06-10T17:23:30.168Z,21.73
2023-06-10T17:28:35.042Z,21.59
2023-06-10T17:33:38.239Z,21.49
2023-06-10T17:38:43.252Z,21.40
2023-06-10T17:43:46.077Z,21.31
2023-06-10T17:48:51.819Z,21.21
2023-06-10T17:53:54.516Z,21.10
2023-06-10T17:58:57.346Z,20.97
2023-06-10T18:04:07.953Z,20.82
2023-06-10T18:09:15.210Z,20.68
2023-06-10T18:14:17.972Z,20.58
2023-06-10T18:19:22.961Z,20.45
2023-06-10T18:24:25.944Z,20.30
2023-06-10T18:29:28.779Z,20.16
2023-06-10T18:34:31.841Z,20.00
2023-06-10T18:39:36.161Z,19.86
2023-06-10T18:44:38.939Z,19.72
2023-06-10T18:49:48.710Z,19.57
2023-06-10T18:54:55.179Z,19.45
2023-06-10T18:59:58.334Z,19.32
2023-06-10T19:05:02.667Z,19.18
2023-06-10T19:10:08.380Z,19.03
2023-06-10T19:15:12.127Z,18.87
2023-06-10T19:20:16.367Z,18.74
2023-06-10T19:25:23.312Z,18.64
2023-06-10T19:30:26.029Z,18.52
2023-06-10T19:35:29.153Z,18.40
2023-06-10T19:40:35.209Z,18.28
2023-06-10T19:45:38.135Z,18.16
2023-06-10T19:50:41.205Z,18.04
2023-06-10T19:55:44.390Z,17.93
2023-06-10T20:00:48.838Z,17.81
2023-06-10T20:05:51.935Z,17.69
2023-06-10T20:10:56.391Z,17.58
2023-06-10T20:16:02.935Z,17.48
2023-06-10T20:21:07.139Z,17.39
2023-06-10T20:26:10.029Z,17.27
2023-06-10T20:31:22.945Z,17.17
2023-06-10T20:36:29.618Z,17.07
2023-06-10T20:41:35.499Z,16.97
2023-06-10T20:46:38.635Z,16.88
2023-06-10T20:51:43.641Z,16.78
2023-06-10T20:56:49.425Z,16.70
2023-06-10T21:01:52.525Z,16.59
2023-06-10T21:06:57.965Z,16.49
2023-06-10T21:12:02.065Z,16.41
2023-06-10T21:17:05.182Z,16.31
2023-06-10T21:22:08.659Z,16.25
2023-06-10T21:27:12.205Z,16.16
2023-06-10T21:32:15.540Z,16.05
2023-06-10T21:37:18.324Z,15.95
2023-06-10T21:42:22.585Z,15.86
2023-06-10T21:47:25.455Z,15.78
2023-06-10T21:52:28.384Z,15.67
2023-06-10T21:57:31.251Z,15.57
2023-06-10T22:02:33.984Z,15.47
2023-06-10T22:07:42.216Z,15.37
2023-06-10T22:12:44.994Z,15.31
2023-06-10T22:17:47.803Z,15.22
2023-06-10T22:22:50.696Z,15.12
2023-06-10T22:27:53.526Z,15.04
2023-06-10T22:32:56.411Z,14.94
2023-06-10T22:37:59.369Z,14.87
2023-06-10T22:43:02.242Z,14.76
2023-06-10T22:48:05.573Z,14.66
2023-06-10T22:53:08.531Z,14.58
2023-06-10T22:58:11.551Z,14.49
2023-06-10T23:03:14.395Z,14.42
2023-06-10T23:08:19.720Z,14.34
2023-06-10T23:13:22.615Z,14.26
2023-06-10T23:18:25.332Z,14.17
2023-06-10T23:23:39.299Z,14.09
2023-06-10T23:28:43.153Z,13.99
2023-06-10T23:33:47.022Z,13.90
2023-06-10T23:38:49.945Z,13.81
2023-06-10T23:43:54.083Z,13.73
2023-06-10T23:48:56.718Z,13.65
2023-06-10T23:54:02.409Z,13.57
2023-06-10T23:59:05.114Z,13.49
